Weather at San Francisco International Airport

Public forecast

Using degrees Fahrenheit for public forecast. Weather courtesy of forecast.io.

Current aviation weather report (METAR) for San Francisco International Airport

Retrieved 2021/08/04 15:56 UTC (12 minutes ago):

KSFO 041556Z VRB06KT 10SM FEW006 BKN010 14/12 A2999 RMK AO2 SLP155 T01440117

Aviation forecast (TAF) for San Francisco International Airport

Retrieved 2021/08/04 12:33 UTC (4 hours ago):

TAF KSFO 041130Z 0412/0518 30007KT P6SM BKN009 FM041800 27009KT P6SM FEW007 TEMPO 0418/0419 BKN010 FM042000 29018G24KT P6SM FEW009 FEW200 FM050300 29016KT P6SM SCT007 BKN011 FM050900 30012KT 6SM -DZ OVC009 FM051600 27013KT P6SM OVC012